Time;durP1;ratioP1;P1;durP2;ratioP2;P2;SDS_P1;SDS_P2;PMS_P1;PMS_P2;Temp;Humidity;BMP_temperature;BMP_pressure;BME280_temperature;BME280_humidity;BME280_pressure;Samples;Min_cycle;Max_cycle;Signal;HPM_P1;HPM_P2
2023/08/11 00:01:39;;;;;;;2.45;1.80;;;;;;;18.79;74.50;102084.44;5015669;28;97335;-27
2023/08/11 00:04:05;;;;;;;2.70;1.85;;;;;;;18.82;74.05;102085.06;5016142;28;97272;-29
2023/08/11 00:06:31;;;;;;;2.58;1.58;;;;;;;18.77;74.55;102083.66;5014549;28;96753;-26
2023/08/11 00:08:56;;;;;;;3.60;1.58;;;;;;;18.74;74.74;102087.50;5016355;28;96798;-26
2023/08/11 00:11:22;;;;;;;3.67;1.58;;;;;;;18.70;75.37;102090.59;5015543;28;99393;-28
2023/08/11 00:13:48;;;;;;;3.08;1.58;;;;;;;18.66;75.19;102087.19;5014433;28;100856;-27
2023/08/11 00:16:14;;;;;;;1.33;1.20;;;;;;;18.69;75.39;102081.47;5014744;28;96526;-27
2023/08/11 00:18:40;;;;;;;4.70;1.60;;;;;;;18.62;75.58;102078.31;5014794;28;96960;-27
2023/08/11 00:21:05;;;;;;;3.13;1.65;;;;;;;18.65;75.56;102085.44;5015972;28;97375;-27
2023/08/11 00:23:31;;;;;;;2.72;1.50;;;;;;;18.63;75.22;102082.81;5015918;28;97325;-26
2023/08/11 00:25:56;;;;;;;2.15;1.45;;;;;;;18.60;75.09;102073.94;5016164;28;96548;-27
2023/08/11 00:28:22;;;;;;;3.28;1.77;;;;;;;18.59;76.07;102078.56;5016182;28;96810;-27
2023/08/11 00:30:48;;;;;;;3.38;1.75;;;;;;;18.59;75.68;102077.66;5015780;28;97928;-27
2023/08/11 00:33:14;;;;;;;2.67;1.60;;;;;;;18.54;75.90;102063.41;5014128;28;101576;-28
2023/08/11 00:35:40;;;;;;;2.22;1.50;;;;;;;18.53;75.91;102058.94;5015526;28;97030;-27
2023/08/11 00:38:06;;;;;;;3.67;1.80;;;;;;;18.53;75.25;102059.81;5014098;28;96848;-28
2023/08/11 00:40:31;;;;;;;3.08;1.75;;;;;;;18.51;75.50;102059.03;5015362;28;99280;-26
2023/08/11 00:42:57;;;;;;;3.33;1.88;;;;;;;18.47;75.54;102049.28;5015470;28;99293;-26
2023/08/11 00:45:22;;;;;;;2.63;1.90;;;;;;;18.55;75.46;102065.19;5015939;28;96680;-27
2023/08/11 00:47:48;;;;;;;3.53;1.90;;;;;;;18.54;75.25;102061.53;5015468;28;96916;-27
2023/08/11 00:50:17;;;;;;;2.47;1.58;;;;;;;18.50;76.23;102053.69;5013856;28;100993;-26
2023/08/11 00:52:47;;;;;;;3.80;1.75;;;;;;;18.50;75.61;102050.94;5015564;28;97865;-27
2023/08/11 00:55:14;;;;;;;2.63;1.65;;;;;;;18.54;75.26;102044.22;5014330;28;96616;-28
2023/08/11 00:57:40;;;;;;;2.70;1.48;;;;;;;18.45;75.39;102034.81;5014180;28;96843;-26
2023/08/11 01:00:13;;;;;;;2.88;1.65;;;;;;;18.52;75.72;102049.84;5013248;28;101062;-27
2023/08/11 01:02:42;;;;;;;2.92;1.83;;;;;;;18.50;75.66;102049.06;5013889;28;100663;-27
2023/08/11 01:05:09;;;;;;;2.80;1.70;;;;;;;18.50;75.49;102051.81;5013588;28;96843;-26
2023/08/11 01:07:43;;;;;;;2.22;1.70;;;;;;;18.50;75.95;102049.06;5013760;28;96900;-27
2023/08/11 01:10:26;;;;;;;3.22;1.90;;;;;;;18.49;76.06;102055.53;5013586;28;100820;-26
2023/08/11 01:12:52;;;;;;;2.33;1.80;;;;;;;18.49;76.20;102054.66;5012663;28;100427;-27
2023/08/11 01:15:24;;;;;;;2.70;1.58;;;;;;;18.48;76.35;102050.19;5015397;28;96770;-28
2023/08/11 01:17:50;;;;;;;2.60;1.88;;;;;;;18.44;76.31;102050.38;5015589;28;96661;-26
2023/08/11 01:20:17;;;;;;;2.67;1.90;;;;;;;18.43;76.19;102045.03;5013417;28;101121;-26
2023/08/11 01:22:53;;;;;;;3.30;1.33;;;;;;;18.45;76.36;102048.53;5013505;28;101344;-27
2023/08/11 01:25:20;;;;;;;2.65;1.83;;;;;;;18.45;75.99;102041.19;5014350;28;96645;-27
2023/08/11 01:27:56;;;;;;;2.97;1.88;;;;;;;18.45;76.15;102041.19;5013818;28;96803;-27
2023/08/11 01:30:22;;;;;;;3.42;1.83;;;;;;;18.39;76.20;102027.91;5013408;28;100501;-26
2023/08/11 01:32:48;;;;;;;2.85;1.73;;;;;;;18.38;77.15;102031.66;5013178;28;100919;-27
2023/08/11 01:35:13;;;;;;;2.85;1.98;;;;;;;18.35;76.86;102026.41;5014710;28;96727;-26
2023/08/11 01:37:39;;;;;;;2.83;1.77;;;;;;;18.34;76.52;102026.53;5014735;28;96843;-27
2023/08/11 01:40:10;;;;;;;3.05;2.10;;;;;;;18.33;76.93;102028.41;5014535;28;99342;-27
2023/08/11 01:42:41;;;;;;;2.38;1.77;;;;;;;18.29;77.29;102021.38;5014921;28;99269;-26
2023/08/11 01:45:11;;;;;;;3.22;1.65;;;;;;;18.31;76.86;102029.50;5013520;28;96820;-27
2023/08/11 01:47:37;;;;;;;3.25;1.85;;;;;;;18.30;77.19;102030.47;5014713;28;96823;-26
2023/08/11 01:50:04;;;;;;;2.92;1.80;;;;;;;18.28;77.32;102024.22;5012500;28;101620;-32
2023/08/11 01:52:39;;;;;;;2.30;1.65;;;;;;;18.19;77.24;102012.09;5012966;28;100945;-27
2023/08/11 01:55:06;;;;;;;4.57;2.20;;;;;;;18.23;77.94;102030.97;5013200;28;96612;-27
2023/08/11 01:57:34;;;;;;;3.20;1.88;;;;;;;18.18;77.82;102022.19;5014598;28;96877;-27
2023/08/11 01:59:59;;;;;;;2.97;1.98;;;;;;;18.17;78.34;102036.03;5012801;28;100919;-27
2023/08/11 02:02:25;;;;;;;3.22;1.70;;;;;;;18.12;78.11;102032.75;5014175;28;99157;-27
2023/08/11 02:04:50;;;;;;;4.18;2.15;;;;;;;18.11;78.16;102033.72;5014039;28;96926;-26
2023/08/11 02:07:16;;;;;;;3.65;2.13;;;;;;;18.06;78.68;102036.81;5014981;28;96772;-28
2023/08/11 02:09:41;;;;;;;3.20;1.67;;;;;;;18.09;77.85;102041.19;5014477;28;97860;-26
2023/08/11 02:12:07;;;;;;;2.55;1.98;;;;;;;18.09;78.02;102035.69;5013277;28;97378;-27
2023/08/11 02:14:33;;;;;;;2.05;1.63;;;;;;;18.02;77.97;102019.72;5013880;28;96796;-27
2023/08/11 02:16:58;;;;;;;4.30;1.83;;;;;;;18.07;78.34;102033.09;5013061;28;96955;-28
2023/08/11 02:19:24;;;;;;;4.20;1.98;;;;;;;18.04;78.78;102028.72;5013976;28;97946;-27
2023/08/11 02:21:49;;;;;;;2.63;1.77;;;;;;;18.02;78.52;102029.81;5012772;28;100704;-27
2023/08/11 02:24:15;;;;;;;3.80;2.05;;;;;;;18.03;78.82;102031.56;5016290;28;96524;-26
2023/08/11 02:26:40;;;;;;;3.60;2.15;;;;;;;18.00;78.74;102038.16;5018190;28;96841;-26
2023/08/11 02:29:06;;;;;;;4.15;1.88;;;;;;;17.97;78.78;102023.78;5017490;28;99304;-27
2023/08/11 02:31:32;;;;;;;3.30;1.80;;;;;;;18.03;78.25;102031.56;5017818;28;99032;-27
2023/08/11 02:33:58;;;;;;;3.78;1.90;;;;;;;17.97;78.10;102021.94;5017661;28;96651;-27
2023/08/11 02:36:24;;;;;;;3.65;2.00;;;;;;;17.96;78.35;102011.06;5017601;28;96823;-26
2023/08/11 02:38:51;;;;;;;2.67;1.77;;;;;;;18.00;78.69;102009.88;5016914;28;97882;-27
2023/08/11 02:41:16;;;;;;;3.47;2.00;;;;;;;17.97;78.10;102010.06;5015956;28;101349;-27
2023/08/11 02:43:41;;;;;;;3.85;1.83;;;;;;;17.98;78.04;102009.97;5017672;28;96487;-26
2023/08/11 02:46:07;;;;;;;2.50;1.77;;;;;;;17.98;77.77;102017.31;5017494;28;96883;-28
2023/08/11 02:48:36;;;;;;;2.25;1.73;;;;;;;17.98;78.07;102015.44;5017248;28;97408;-27
2023/08/11 02:51:04;;;;;;;3.35;1.98;;;;;;;17.98;78.19;102018.19;5015892;28;100893;-28
2023/08/11 02:53:30;;;;;;;2.83;1.75;;;;;;;17.94;78.28;102016.66;5016057;28;96580;-26
2023/08/11 02:55:56;;;;;;;3.03;1.73;;;;;;;17.93;77.98;102014.91;4999712;28;96965;-27
2023/08/11 02:58:21;;;;;;;3.00;1.77;;;;;;;17.96;78.53;102022.03;5017136;28;98106;-28
2023/08/11 03:00:48;;;;;;;2.58;1.85;;;;;;;17.91;78.51;102005.94;5015679;28;100963;-26
2023/08/11 03:03:14;;;;;;;2.78;1.90;;;;;;;17.85;78.29;102003.63;5015201;28;96663;-26
2023/08/11 03:05:41;;;;;;;3.17;1.85;;;;;;;17.92;78.10;102015.03;5016885;28;96764;-27
2023/08/11 03:08:07;;;;;;;4.03;1.90;;;;;;;17.90;78.23;102017.00;5015461;28;100857;-27
2023/08/11 03:10:33;;;;;;;4.47;1.90;;;;;;;17.84;78.54;102007.38;5015400;28;100848;-26
2023/08/11 03:12:58;;;;;;;3.80;2.00;;;;;;;17.84;78.71;102012.84;5017306;28;96566;-27
2023/08/11 03:15:23;;;;;;;2.88;1.77;;;;;;;17.83;78.62;102008.38;5017143;28;96905;-27
2023/08/11 03:17:49;;;;;;;2.28;1.55;;;;;;;17.77;79.27;102004.16;5016680;28;97300;-27
2023/08/11 03:20:15;;;;;;;4.05;2.45;;;;;;;17.73;79.20;102002.66;5017164;28;97844;-28
2023/08/11 03:22:44;;;;;;;2.45;1.75;;;;;;;17.72;78.83;102000.91;5015664;28;96667;-27
2023/08/11 03:25:11;;;;;;;2.55;1.75;;;;;;;17.75;79.11;102006.13;5015573;28;96854;-27
2023/08/11 03:27:39;;;;;;;2.78;1.70;;;;;;;17.71;78.93;102001.00;5014855;28;101388;-27
2023/08/11 03:30:06;;;;;;;2.85;1.95;;;;;;;17.67;78.94;102004.97;5014966;28;100889;-27
2023/08/11 03:32:32;;;;;;;2.50;1.63;;;;;;;17.69;78.92;102012.09;5016817;28;96496;-27
2023/08/11 03:34:57;;;;;;;3.92;1.92;;;;;;;17.62;79.57;101995.22;5016121;28;96786;-28
2023/08/11 03:37:22;;;;;;;3.28;1.98;;;;;;;17.63;79.63;102001.56;5016421;28;97444;-27
2023/08/11 03:39:47;;;;;;;2.88;2.03;;;;;;;17.60;80.11;102007.28;5016558;28;96503;-27
2023/08/11 03:42:13;;;;;;;3.47;1.77;;;;;;;17.61;80.27;102009.00;5016818;28;96487;-27
2023/08/11 03:44:39;;;;;;;3.92;2.03;;;;;;;17.52;80.10;101993.25;5017087;28;96769;-27
2023/08/11 03:47:05;;;;;;;5.05;2.00;;;;;;;17.55;80.05;101991.16;5014814;28;101263;-27
2023/08/11 03:49:31;;;;;;;2.42;1.52;;;;;;;17.54;79.39;101991.28;5014964;28;101608;-27
2023/08/11 03:51:57;;;;;;;3.63;2.08;;;;;;;17.53;79.64;101987.66;5014616;28;96561;-27
2023/08/11 03:54:22;;;;;;;3.95;1.77;;;;;;;17.55;80.02;101993.91;5016661;28;96768;-27
2023/08/11 03:56:48;;;;;;;2.58;1.75;;;;;;;17.49;80.49;101986.13;5016346;28;97911;-27
2023/08/11 03:59:13;;;;;;;2.63;1.70;;;;;;;17.47;80.18;101985.38;5016163;28;98030;-27
2023/08/11 04:01:38;;;;;;;4.18;2.33;;;;;;;17.49;80.72;101985.25;5016233;28;96508;-27
2023/08/11 04:04:04;;;;;;;3.45;2.00;;;;;;;17.49;80.26;101982.50;5016069;28;96834;-26
2023/08/11 04:06:34;;;;;;;3.20;1.95;;;;;;;17.50;79.82;101979.69;5015529;28;99457;-27
2023/08/11 04:09:00;;;;;;;4.80;2.25;;;;;;;17.51;80.18;101975.06;5014978;28;101432;-26
2023/08/11 04:11:26;;;;;;;3.22;1.92;;;;;;;17.50;79.56;101979.69;5014901;28;96553;-27
2023/08/11 04:13:52;;;;;;;6.85;2.35;;;;;;;17.51;79.73;101975.94;5014673;28;96869;-27
2023/08/11 04:16:17;;;;;;;3.05;1.95;;;;;;;17.48;80.68;101964.34;5015314;28;99332;-27
2023/08/11 04:18:42;;;;;;;4.90;2.20;;;;;;;17.46;79.62;101963.56;5016043;28;97848;-26
2023/08/11 04:21:07;;;;;;;4.13;2.30;;;;;;;17.50;79.70;101963.25;5016090;28;96481;-28
2023/08/11 04:23:33;;;;;;;4.05;2.13;;;;;;;17.46;79.93;101955.34;5015842;28;96608;-27
2023/08/11 04:25:58;;;;;;;5.03;2.05;;;;;;;17.46;80.37;101955.34;5015700;28;98894;-26
2023/08/11 04:28:24;;;;;;;3.42;2.00;;;;;;;17.43;79.58;101950.09;5015680;28;97299;-27
2023/08/11 04:30:49;;;;;;;3.35;2.22;;;;;;;17.43;79.75;101939.16;5015939;28;96642;-26
2023/08/11 04:33:15;;;;;;;3.05;1.95;;;;;;;17.43;80.78;101945.50;5016324;28;96806;-27
2023/08/11 04:35:41;;;;;;;3.90;2.50;;;;;;;17.46;80.74;101950.75;5014082;28;101132;-27
2023/08/11 04:38:07;;;;;;;3.85;2.22;;;;;;;17.43;80.39;101942.75;5015247;28;97992;-28
2023/08/11 04:40:33;;;;;;;4.43;2.35;;;;;;;17.45;80.71;101951.75;5015399;28;96633;-27
2023/08/11 04:42:59;;;;;;;3.85;2.05;;;;;;;17.41;80.39;101942.00;5014395;28;96918;-27
2023/08/11 04:45:26;;;;;;;3.10;1.98;;;;;;;17.41;80.30;101942.88;5013915;28;101000;-28
2023/08/11 04:47:51;;;;;;;3.72;2.33;;;;;;;17.42;80.57;101951.94;5014170;28;97378;-27
2023/08/11 04:50:16;;;;;;;5.90;2.25;;;;;;;17.42;80.89;101949.22;5015987;28;96579;-27
2023/08/11 04:52:42;;;;;;;4.70;2.38;;;;;;;17.38;80.77;101943.09;5015806;28;96768;-27
2023/08/11 04:55:08;;;;;;;4.25;2.15;;;;;;;17.31;80.65;101930.84;5015038;28;99823;-27
2023/08/11 04:57:34;;;;;;;3.10;2.22;;;;;;;17.38;80.72;101942.22;5014024;28;102473;-29
2023/08/11 05:00:00;;;;;;;3.17;2.00;;;;;;;17.37;80.94;101937.72;5015327;28;96596;-26
2023/08/11 05:02:26;;;;;;;5.25;2.67;;;;;;;17.39;80.84;101941.22;5014032;28;96852;-26
2023/08/11 05:04:52;;;;;;;4.97;2.47;;;;;;;17.41;80.66;101942.00;5014716;28;98452;-27
2023/08/11 05:07:17;;;;;;;3.08;2.25;;;;;;;17.37;80.39;101949.53;5014808;28;97316;-27
2023/08/11 05:09:43;;;;;;;3.05;2.05;;;;;;;17.43;80.47;101956.47;5015501;28;96503;-28
2023/08/11 05:12:10;;;;;;;5.43;2.67;;;;;;;17.39;80.62;101949.44;5013982;28;96812;-27
2023/08/11 05:14:35;;;;;;;4.40;2.65;;;;;;;17.43;80.36;101955.59;5013441;28;101127;-27
2023/08/11 05:17:01;;;;;;;4.78;2.90;;;;;;;17.44;80.45;101946.38;5015059;28;97337;-26
2023/08/11 05:19:26;;;;;;;4.20;2.28;;;;;;;17.44;80.72;101943.63;5015279;28;96433;-27
2023/08/11 05:21:52;;;;;;;3.70;2.35;;;;;;;17.44;80.29;101939.03;5015549;28;96829;-27
2023/08/11 05:24:17;;;;;;;4.28;2.38;;;;;;;17.51;79.58;101936.72;5014934;28;97887;-27
2023/08/11 05:26:43;;;;;;;5.07;2.65;;;;;;;17.54;79.32;101940.13;5014956;28;97905;-29
2023/08/11 05:29:08;;;;;;;5.30;2.55;;;;;;;17.59;79.44;101943.38;5014517;28;96660;-27
2023/08/11 05:31:33;;;;;;;4.95;2.97;;;;;;;17.65;79.13;101947.53;5015151;28;97035;-27
2023/08/11 05:33:59;;;;;;;5.28;2.67;;;;;;;17.67;79.46;101948.28;5014784;28;97740;-28
2023/08/11 05:36:25;;;;;;;5.53;3.50;;;;;;;17.69;79.11;101940.84;5013385;28;98870;-27
2023/08/11 05:38:50;;;;;;;5.75;2.97;;;;;;;17.76;78.86;101946.75;5014862;28;96930;-29
2023/08/11 05:41:16;;;;;;;5.88;3.25;;;;;;;17.82;77.95;101951.78;5014959;28;96886;-26
2023/08/11 05:43:41;;;;;;;6.32;3.08;;;;;;;17.85;78.22;101945.19;5014481;28;98160;-26
2023/08/11 05:46:07;;;;;;;7.00;2.90;;;;;;;17.93;78.20;101940.03;5014753;28;99132;-27
2023/08/11 05:48:35;;;;;;;5.55;3.33;;;;;;;18.02;77.69;101958.53;5014946;28;96723;-26
2023/08/11 05:51:04;;;;;;;8.93;2.95;;;;;;;18.04;77.78;101951.94;5014840;28;96747;-27
2023/08/11 05:53:30;;;;;;;4.95;3.03;;;;;;;18.16;76.95;101958.38;5012291;28;100903;-29
2023/08/11 05:55:56;;;;;;;10.30;4.13;;;;;;;18.19;76.97;101952.63;5014220;28;97435;-26
2023/08/11 05:58:21;;;;;;;10.70;3.40;;;;;;;18.30;77.05;101956.41;5013461;28;96699;-30
2023/08/11 06:00:48;;;;;;;5.95;3.38;;;;;;;18.39;77.35;101961.22;5014548;28;97087;-26
2023/08/11 06:03:13;;;;;;;7.70;3.15;;;;;;;18.41;76.51;101962.84;5014442;28;97970;-26
2023/08/11 06:05:39;;;;;;;8.82;3.47;;;;;;;18.52;76.37;101967.50;5013964;28;97284;-26
2023/08/11 06:08:04;;;;;;;5.38;3.20;;;;;;;18.60;76.60;101969.66;5013050;28;96829;-28
2023/08/11 06:10:31;;;;;;;5.93;3.08;;;;;;;18.61;76.17;101969.50;5014758;28;96794;-26
2023/08/11 06:12:57;;;;;;;6.32;3.35;;;;;;;18.73;75.41;101975.03;5012850;28;99771;-27
2023/08/11 06:15:22;;;;;;;7.43;3.15;;;;;;;18.76;75.26;101953.78;5013646;28;97774;-32
2023/08/11 06:17:50;;;;;;;5.53;3.20;;;;;;;18.84;75.60;101967.75;5011594;28;97009;-28
2023/08/11 06:20:19;;;;;;;4.95;2.95;;;;;;;18.91;75.19;101968.16;5011971;28;97243;-30
2023/08/11 06:22:47;;;;;;;5.65;3.38;;;;;;;18.94;75.05;101956.06;5010598;28;100634;-28
2023/08/11 06:25:15;;;;;;;8.18;3.17;;;;;;;19.04;75.13;101968.94;5011940;28;97855;-28
2023/08/11 06:27:44;;;;;;;7.10;3.33;;;;;;;19.10;74.66;101968.44;5012490;28;96956;-29
2023/08/11 06:30:10;;;;;;;5.95;2.90;;;;;;;19.22;74.31;101960.22;5010941;28;97839;-31
2023/08/11 06:32:36;;;;;;;8.80;3.80;;;;;;;19.33;74.22;101962.97;5013444;28;98831;-27
2023/08/11 06:35:03;;;;;;;4.90;2.75;;;;;;;19.42;74.31;101959.47;5012760;28;99205;-26
2023/08/11 06:37:28;;;;;;;5.03;2.95;;;;;;;19.51;73.61;101946.84;5012571;28;96915;-27
2023/08/11 06:39:58;;;;;;;9.50;3.45;;;;;;;19.65;73.67;101949.34;5014144;28;96832;-26
2023/08/11 06:42:23;;;;;;;5.03;2.70;;;;;;;19.79;73.19;101948.22;5012081;28;100839;-26
2023/08/11 06:44:49;;;;;;;11.80;3.60;;;;;;;19.91;72.68;101962.84;5013956;28;97678;-26
2023/08/11 06:47:14;;;;;;;5.40;3.05;;;;;;;20.04;72.05;101957.16;5014306;28;96673;-28
2023/08/11 06:49:39;;;;;;;5.50;3.08;;;;;;;20.15;71.86;101951.66;5014330;28;96792;-27
2023/08/11 06:52:05;;;;;;;5.60;3.22;;;;;;;20.24;71.57;101945.38;5013651;28;100826;-27
2023/08/11 06:54:30;;;;;;;5.88;2.95;;;;;;;20.31;71.11;101931.97;5013432;28;97681;-27
2023/08/11 06:56:55;;;;;;;7.22;3.03;;;;;;;20.50;70.73;101943.13;5013815;28;96550;-27
2023/08/11 06:59:21;;;;;;;4.32;2.67;;;;;;;20.63;70.10;101953.09;5014424;28;96769;-26
2023/08/11 07:01:46;;;;;;;6.65;3.22;;;;;;;20.78;70.55;101949.91;5013815;28;97950;-27
2023/08/11 07:04:11;;;;;;;7.07;2.88;;;;;;;20.94;69.32;101959.56;5013575;28;98126;-26
2023/08/11 07:06:37;;;;;;;4.90;2.50;;;;;;;21.05;69.59;101958.63;5013030;28;96817;-27
2023/08/11 07:09:02;;;;;;;4.78;2.55;;;;;;;21.18;68.84;101951.88;5013627;28;97473;-27
2023/08/11 07:11:28;;;;;;;6.97;2.60;;;;;;;21.29;68.28;101956.44;5015898;28;98121;-27
2023/08/11 07:13:53;;;;;;;5.10;2.83;;;;;;;21.36;67.25;101951.25;5016827;28;98816;-26
2023/08/11 07:16:19;;;;;;;6.53;3.33;;;;;;;21.51;68.01;101949.88;5017366;28;96573;-27
2023/08/11 07:18:44;;;;;;;6.03;2.47;;;;;;;21.66;66.95;101960.53;5017343;28;96816;-27
2023/08/11 07:21:09;;;;;;;6.38;2.33;;;;;;;21.75;66.66;101954.19;5016894;28;98403;-26
2023/08/11 07:23:35;;;;;;;4.75;2.13;;;;;;;21.87;66.22;101955.81;5016680;28;99030;-26
2023/08/11 07:26:00;;;;;;;4.53;2.30;;;;;;;21.93;65.83;101958.03;5017144;28;96499;-27
2023/08/11 07:28:25;;;;;;;6.32;2.30;;;;;;;22.11;65.89;101963.72;5016882;28;96752;-26
2023/08/11 07:30:51;;;;;;;4.03;2.15;;;;;;;22.17;65.52;101956.75;5016182;28;97924;-26
2023/08/11 07:33:16;;;;;;;3.63;2.17;;;;;;;22.32;64.66;101954.47;5016259;28;99488;-28
2023/08/11 07:35:42;;;;;;;4.75;2.30;;;;;;;22.38;64.95;101946.50;5017034;28;96862;-27
2023/08/11 07:38:07;;;;;;;4.60;2.15;;;;;;;22.54;64.66;101947.78;5016312;28;96877;-26
2023/08/11 07:40:33;;;;;;;4.47;2.45;;;;;;;22.67;64.00;101949.25;5016356;28;99285;-27
2023/08/11 07:42:59;;;;;;;3.83;2.17;;;;;;;22.77;64.04;101945.59;5016417;28;98730;-27
2023/08/11 07:45:24;;;;;;;4.68;2.08;;;;;;;22.94;63.69;101943.97;5015399;28;96711;-28
2023/08/11 07:47:50;;;;;;;5.47;2.05;;;;;;;23.08;63.59;101946.28;5016834;28;96874;-27
2023/08/11 07:50:15;;;;;;;3.75;1.85;;;;;;;23.31;63.29;101953.22;5016559;28;97298;-27
2023/08/11 07:52:40;;;;;;;3.45;1.90;;;;;;;23.50;63.41;101951.38;5016163;28;97892;-27
2023/08/11 07:55:06;;;;;;;4.95;1.88;;;;;;;23.60;62.49;101945.81;5016332;28;96502;-27
2023/08/11 07:57:32;;;;;;;2.60;1.60;;;;;;;23.64;62.31;101950.00;5016425;28;96837;-27
2023/08/11 07:59:57;;;;;;;2.67;1.63;;;;;;;23.77;61.26;101953.31;5016390;28;97862;-26
2023/08/11 08:02:22;;;;;;;3.53;1.90;;;;;;;23.85;60.40;101966.38;5016332;28;97303;-27
2023/08/11 08:04:48;;;;;;;3.70;1.70;;;;;;;23.94;61.41;101959.94;5014964;28;96557;-27
2023/08/11 08:07:13;;;;;;;3.80;1.85;;;;;;;23.99;61.31;101963.09;5015442;28;96873;-26
2023/08/11 08:09:39;;;;;;;3.75;1.88;;;;;;;23.88;61.43;101955.91;5016054;28;97984;-27
2023/08/11 08:12:04;;;;;;;4.13;1.90;;;;;;;23.73;62.08;101962.91;5016739;28;97308;-27
2023/08/11 08:14:30;;;;;;;3.03;1.45;;;;;;;23.61;62.58;101969.69;5015995;28;96485;-27
2023/08/11 08:16:56;;;;;;;3.83;1.80;;;;;;;23.65;63.35;101972.00;5016431;28;96565;-27
2023/08/11 08:19:22;;;;;;;3.25;1.83;;;;;;;23.71;61.83;101962.19;5007347;28;101174;-27
2023/08/11 08:21:47;;;;;;;3.65;1.90;;;;;;;23.84;62.59;101967.44;4995680;28;97289;-26
2023/08/11 08:24:14;;;;;;;3.45;2.00;;;;;;;23.93;61.95;101960.94;4996182;28;96531;-27
2023/08/11 08:26:40;;;;;;;2.63;1.60;;;;;;;23.89;62.01;101960.38;4978187;28;96956;-27
2023/08/11 08:29:06;;;;;;;2.85;1.67;;;;;;;23.92;61.83;101957.31;4994323;28;99157;-27
2023/08/11 08:31:31;;;;;;;3.85;2.03;;;;;;;23.90;62.19;101958.47;4994412;28;100664;-27
2023/08/11 08:33:57;;;;;;;4.55;1.55;;;;;;;23.82;60.89;101962.03;4996101;28;96548;-27
2023/08/11 08:36:23;;;;;;;3.33;1.95;;;;;;;23.91;61.22;101968.56;4996327;28;96849;-27
2023/08/11 08:38:48;;;;;;;3.28;1.63;;;;;;;23.90;61.19;101956.59;4994023;28;99637;-26
2023/08/11 08:41:18;;;;;;;4.57;1.67;;;;;;;24.12;60.60;101965.47;4995717;28;97220;-27
2023/08/11 08:43:43;;;;;;;3.78;1.60;;;;;;;24.32;60.63;101964.31;4993920;28;96639;-27
2023/08/11 08:46:12;;;;;;;5.03;1.60;;;;;;;24.43;60.75;101960.47;4994446;28;97047;-26
2023/08/11 08:48:55;;;;;;;4.18;1.70;;;;;;;24.63;60.71;101957.56;4994006;28;101018;-27
2023/08/11 08:51:20;;;;;;;5.65;1.80;;;;;;;24.97;60.26;101964.06;4994163;28;100478;-27
2023/08/11 08:53:46;;;;;;;4.10;1.50;;;;;;;25.27;59.60;101964.66;4995575;28;96615;-27
2023/08/11 08:56:12;;;;;;;3.40;1.38;;;;;;;25.21;59.01;101956.97;4995387;28;96857;-27
2023/08/11 08:58:37;;;;;;;4.65;1.80;;;;;;;25.22;59.45;101961.50;4993865;28;101131;-27
2023/08/11 09:01:03;;;;;;;3.58;1.30;;;;;;;25.29;59.59;101968.13;4995744;28;97964;-27
2023/08/11 09:03:30;;;;;;;4.38;1.65;;;;;;;25.58;59.33;101964.13;4994074;28;96526;-27
2023/08/11 09:05:56;;;;;;;5.90;1.75;;;;;;;25.68;59.21;101955.69;4993374;28;99908;-27
2023/08/11 09:08:21;;;;;;;5.10;1.90;;;;;;;25.89;56.61;101956.16;4994554;28;99943;-27
2023/08/11 09:10:47;;;;;;;3.30;2.00;;;;;;;25.94;57.88;101955.63;4995197;28;97247;-27
2023/08/11 09:13:15;;;;;;;1.95;1.50;;;;;;;26.01;57.51;101970.59;4994107;28;96583;-27
2023/08/11 09:15:41;;;;;;;5.32;1.67;;;;;;;26.05;58.64;101967.31;4995414;28;96812;-27
2023/08/11 09:18:06;;;;;;;2.20;1.73;;;;;;;26.02;58.46;101961.22;4994924;28;97339;-27
2023/08/11 09:20:32;;;;;;;3.58;1.90;;;;;;;25.98;57.68;101963.47;4993934;28;97766;-27
2023/08/11 09:22:58;;;;;;;2.15;1.60;;;;;;;26.11;58.07;101973.22;4995200;28;96495;-26
2023/08/11 09:25:23;;;;;;;4.45;1.85;;;;;;;26.30;57.90;101953.47;4995350;28;96822;-26
2023/08/11 09:27:50;;;;;;;3.72;2.03;;;;;;;26.33;57.27;101961.44;4994925;28;97876;-27
2023/08/11 09:30:16;;;;;;;3.78;1.58;;;;;;;26.38;56.88;101966.50;4993228;28;99546;-27
2023/08/11 09:32:47;;;;;;;3.00;2.00;;;;;;;26.34;57.76;101967.88;4993856;28;96598;-27
2023/08/11 09:35:12;;;;;;;3.80;1.83;;;;;;;26.32;57.09;101969.97;4993619;28;97009;-27
2023/08/11 09:37:41;;;;;;;2.60;1.80;;;;;;;26.43;56.72;101969.63;4994425;28;99377;-26
2023/08/11 09:40:08;;;;;;;3.63;2.05;;;;;;;26.66;57.48;101972.66;4994506;28;97441;-27
2023/08/11 09:42:34;;;;;;;4.28;2.00;;;;;;;26.67;58.01;101971.59;4993419;28;96567;-27
2023/08/11 09:44:59;;;;;;;2.88;1.70;;;;;;;26.49;57.40;101968.94;4994853;28;96842;-27
2023/08/11 09:47:28;;;;;;;5.57;1.90;;;;;;;26.40;57.30;101972.75;4994497;28;98034;-28
2023/08/11 09:49:53;;;;;;;3.67;1.73;;;;;;;26.34;57.96;101967.88;4995013;28;97845;-28
2023/08/11 09:52:19;;;;;;;3.00;1.65;;;;;;;26.23;58.64;101966.31;4994028;28;96680;-27
2023/08/11 09:54:47;;;;;;;3.72;2.05;;;;;;;26.08;58.20;101957.75;4993335;28;96902;-28
2023/08/11 09:57:13;;;;;;;5.68;1.67;;;;;;;26.18;57.87;101957.63;4992540;28;101212;-27
2023/08/11 09:59:40;;;;;;;1.90;1.42;;;;;;;26.32;57.07;101965.28;4994377;28;97286;-27
2023/08/11 10:02:09;;;;;;;2.63;1.50;;;;;;;26.61;57.13;101952.84;4993405;28;96755;-26
2023/08/11 10:04:38;;;;;;;3.05;1.55;;;;;;;26.82;55.23;101933.72;4992985;28;96988;-27
2023/08/11 10:07:10;;;;;;;4.03;1.73;;;;;;;27.10;56.26;101950.91;4992438;28;101221;-27
2023/08/11 10:09:37;;;;;;;3.13;1.45;;;;;;;27.21;54.50;101948.81;4994604;28;97867;-27
2023/08/11 10:12:04;;;;;;;3.10;1.60;;;;;;;27.23;54.49;101953.16;4993079;28;96752;-26
2023/08/11 10:14:33;;;;;;;2.10;1.50;;;;;;;27.41;55.14;101941.81;4993348;28;96890;-26
2023/08/11 10:16:59;;;;;;;3.20;1.55;;;;;;;27.62;55.36;101955.13;4992967;28;100980;-27
2023/08/11 10:19:24;;;;;;;3.13;1.75;;;;;;;27.60;54.63;101945.22;4992834;28;99087;-27
2023/08/11 10:21:50;;;;;;;3.05;1.63;;;;;;;27.63;54.78;101930.94;4994223;28;97158;-26
2023/08/11 10:24:15;;;;;;;4.85;1.30;;;;;;;27.96;54.52;101940.03;4994675;28;96945;-28
2023/08/11 10:26:41;;;;;;;5.03;1.65;;;;;;;28.10;53.07;101949.50;4992722;28;98950;-27
2023/08/11 10:29:08;;;;;;;5.10;1.40;;;;;;;28.20;53.49;101949.28;4992677;28;101382;-27
2023/08/11 10:31:34;;;;;;;4.40;1.58;;;;;;;28.32;53.82;101945.03;4992888;28;96631;-26
2023/08/11 10:34:05;;;;;;;5.60;1.60;;;;;;;28.44;52.81;101948.28;4994567;28;96809;-27
2023/08/11 10:36:33;;;;;;;6.40;1.90;;;;;;;28.51;53.53;101946.50;4992570;28;100528;-27
2023/08/11 10:39:08;;;;;;;2.75;1.58;;;;;;;28.64;51.83;101941.16;4992696;28;101383;-27
2023/08/11 10:41:34;;;;;;;2.88;1.60;;;;;;;28.67;52.73;101946.34;4994262;28;96731;-27
2023/08/11 10:43:59;;;;;;;4.07;1.85;;;;;;;28.74;53.14;101947.31;4994454;28;96828;-27
2023/08/11 10:46:26;;;;;;;6.60;1.83;;;;;;;28.90;53.35;101957.47;4996953;28;98103;-27
2023/08/11 10:49:13;;;;;;;2.13;1.38;;;;;;;28.97;52.77;101952.03;4997103;28;99171;-27
2023/08/11 10:51:42;;;;;;;4.13;1.77;;;;;;;29.13;53.04;101954.69;4996079;28;96883;-27
2023/08/11 10:54:13;;;;;;;6.57;1.77;;;;;;;29.15;52.63;101960.06;4996156;28;96825;-27
2023/08/11 10:56:41;;;;;;;2.58;1.70;;;;;;;29.13;52.27;101959.41;4995783;28;100688;-27
2023/08/11 10:59:16;;;;;;;4.25;1.70;;;;;;;29.23;52.50;101946.03;4995796;28;98967;-28
2023/08/11 11:01:45;;;;;;;3.05;1.83;;;;;;;29.21;52.32;101954.59;4995928;28;96713;-28
2023/08/11 11:04:11;;;;;;;9.25;1.60;;;;;;;29.05;51.37;101951.94;4996064;28;96883;-27
2023/08/11 11:06:37;;;;;;;2.88;1.77;;;;;;;28.86;53.28;101960.84;4996740;28;98075;-27
2023/08/11 11:09:03;;;;;;;3.95;2.03;;;;;;;29.00;53.45;101966.44;4995656;28;101134;-27
2023/08/11 11:11:30;;;;;;;2.67;1.65;;;;;;;28.93;53.63;101965.47;4995317;28;96530;-29
2023/08/11 11:13:56;;;;;;;2.50;1.67;;;;;;;28.59;54.39;101957.59;4995731;28;96917;-27
2023/08/11 11:16:21;;;;;;;3.97;1.75;;;;;;;28.41;54.47;101963.41;4996621;28;99629;-27
2023/08/11 11:18:47;;;;;;;6.00;1.98;;;;;;;28.39;54.84;101968.34;4996944;28;97737;-27
2023/08/11 11:21:14;;;;;;;6.57;2.08;;;;;;;28.55;53.97;101954.28;4995741;28;96588;-27